Alachua, Florida
Current Conditions -  °F | °C
As of 10:24 AM on Monday 24 Nov 2014 (Local Time) from KGNV Reporting Station
Overcast Overcast  
Wind Chill: 79°   Ceiling: 1600
Heat Index: 82°   Visibility: 10mi
Dew Point: 72°   Wind: 14mph
Humidity: 79%   Direction: 210°SSW
Pressure: 29.96"   Gusts: 21mph
Location:  29.78°N, 82.48°W
Report Text: KGNV 241524Z 21012G18KT 10SM BKN016 OVC021 26/22 A2996 RMK AO2 T02610222
Loading
Personal Weather Stations






























Interactive Weather Map New forecast layout! Learn more

10-Day Weather Forecast

Advertisements
Track Severe Weather on mobile